Knoebels Grove, Pennsylvania
Current Conditions -  °F | °C
As of 11:53 PM on Monday 20 Oct 2014 (Local Time) from KSEG Reporting Station
Overcast Overcast  
Wind Chill: 50°   Ceiling: 11000
Heat Index: 50°   Visibility: 10mi
Dew Point: 45°   Wind: 0mph
Humidity: 83%   Direction: NA
Pressure: 29.9"   Gusts: NA
Location:  40.8606°N, 76.551°W
Report Text: KSEG 210353Z AUTO 00000KT 10SM FEW085 OVC110 10/07 A2990 RMK AO2 SLP127 T01000072
Loading
Personal Weather Stations






























Interactive Weather Map
Tropical Storm Tracking
New forecast layout! Learn more

10-Day Weather Forecast

Advertisements
Track Severe Weather on mobile